createdAt,value
2018-05-01T00:00:57.969Z,0.62
2018-05-01T00:03:26.414Z,1.45
2018-05-01T00:05:54.735Z,3.77
2018-05-01T00:08:23.648Z,0.80
2018-05-01T00:10:51.921Z,1.07
2018-05-01T00:13:20.200Z,1.27
2018-05-01T00:15:48.549Z,2.63
2018-05-01T00:18:16.865Z,0.95
2018-05-01T00:20:45.176Z,0.70
2018-05-01T00:23:14.211Z,3.08
2018-05-01T00:25:42.522Z,0.70
2018-05-01T00:28:10.829Z,1.30
2018-05-01T00:30:39.853Z,0.77
2018-05-01T00:33:08.096Z,1.70
2018-05-01T00:35:38.305Z,0.70
2018-05-01T00:38:06.636Z,0.70
2018-05-01T01:10:12.760Z,0.73
2018-05-01T01:12:42.292Z,0.70
2018-05-01T01:15:10.639Z,0.53
2018-05-01T01:17:38.976Z,0.70
2018-05-01T01:20:07.260Z,0.77
2018-05-01T01:22:35.678Z,0.60
2018-05-01T01:25:04.749Z,0.50
2018-05-01T01:27:33.039Z,0.77
2018-05-01T01:30:02.099Z,0.80
2018-05-01T01:32:30.509Z,0.82
2018-05-01T01:34:58.708Z,0.60
2018-05-01T01:37:26.347Z,1.07
2018-05-01T01:39:54.599Z,0.70
2018-05-01T01:42:22.140Z,0.87
2018-05-01T01:44:49.554Z,0.60
2018-05-01T01:47:17.001Z,0.60
2018-05-01T01:49:44.705Z,0.63
2018-05-01T01:52:12.390Z,0.82
2018-05-01T01:54:39.856Z,1.98
2018-05-01T01:57:07.468Z,2.10
2018-05-01T01:59:36.066Z,0.80
2018-05-01T02:02:03.531Z,0.57
2018-05-01T02:04:31.004Z,0.77
2018-05-01T02:06:58.487Z,0.60
2018-05-01T02:09:26.685Z,0.82
2018-05-01T02:11:54.335Z,0.70
2018-05-01T02:14:21.786Z,0.57
2018-05-01T02:16:50.032Z,1.43
2018-05-01T02:19:17.464Z,1.92
2018-05-01T02:21:45.081Z,0.70
2018-05-01T02:24:13.284Z,0.90
2018-05-01T02:26:40.765Z,0.70
2018-05-01T02:29:08.288Z,0.90
2018-05-01T02:31:35.738Z,0.80
2018-05-01T02:34:03.286Z,0.60
2018-05-01T02:36:31.846Z,0.82
2018-05-01T02:39:00.151Z,0.80
2018-05-01T02:41:28.542Z,0.75
2018-05-01T02:43:55.978Z,1.20
2018-05-01T02:46:25.336Z,2.03
2018-05-01T02:48:52.806Z,0.90
2018-05-01T02:51:20.429Z,1.10
2018-05-01T02:53:47.900Z,1.43
2018-05-01T02:56:15.360Z,0.90
2018-05-01T02:58:43.066Z,0.80
2018-05-01T03:01:11.420Z,1.50
2018-05-01T03:03:38.886Z,1.83
2018-05-01T03:06:06.385Z,1.23
2018-05-01T03:08:33.869Z,1.60
2018-05-01T03:11:01.462Z,3.93
2018-05-01T03:13:28.912Z,1.30
2018-05-01T03:15:56.388Z,1.40
2018-05-01T03:18:23.869Z,1.53
2018-05-01T03:20:51.531Z,1.00
2018-05-01T03:23:18.956Z,1.37
2018-05-01T03:25:46.416Z,1.50
2018-05-01T03:28:14.015Z,1.40
2018-05-01T03:30:42.820Z,3.20
2018-05-01T03:33:10.255Z,1.50
2018-05-01T03:35:37.741Z,1.90
2018-05-01T03:38:05.316Z,2.90
2018-05-01T03:40:32.795Z,2.10
2018-05-01T03:43:00.261Z,3.70
2018-05-01T03:45:28.471Z,3.07
2018-05-01T03:47:55.998Z,2.63
2018-05-01T03:50:23.592Z,2.23
2018-05-01T03:52:51.399Z,3.15
2018-05-01T03:55:18.950Z,9.37
2018-05-01T03:57:46.525Z,2.77
2018-05-01T04:00:13.994Z,6.53
2018-05-01T04:02:42.190Z,2.87
2018-05-01T04:05:09.830Z,3.67
2018-05-01T04:07:38.110Z,2.50
2018-05-01T04:10:06.365Z,3.50
2018-05-01T04:12:33.876Z,2.40
2018-05-01T04:15:01.321Z,2.77
2018-05-01T04:17:28.795Z,2.80
2018-05-01T04:19:56.241Z,3.33
2018-05-01T04:22:23.696Z,3.97
2018-05-01T04:24:51.492Z,3.50
2018-05-01T04:27:18.950Z,3.45
2018-05-01T04:29:46.494Z,3.33
2018-05-01T04:32:13.969Z,2.57
2018-05-01T04:34:41.424Z,4.65
2018-05-01T04:37:08.902Z,2.77
2018-05-01T04:39:36.396Z,3.30
2018-05-01T04:42:03.865Z,3.20
2018-05-01T04:44:31.410Z,4.72
2018-05-01T04:46:58.852Z,4.53
2018-05-01T04:49:27.124Z,7.80
2018-05-01T04:51:54.575Z,4.50
2018-05-01T04:54:22.099Z,7.93
2018-05-01T04:56:49.639Z,6.62
2018-05-01T04:59:17.117Z,6.17
2018-05-01T05:01:44.586Z,5.97
2018-05-01T05:04:12.019Z,9.30
2018-05-01T05:06:39.486Z,6.70
2018-05-01T05:09:07.072Z,6.23
2018-05-01T05:11:34.566Z,8.77
2018-05-01T05:14:01.986Z,7.47
2018-05-01T05:16:29.471Z,12.27
2018-05-01T05:18:58.146Z,9.93
2018-05-01T05:21:26.385Z,10.47
2018-05-01T05:23:53.801Z,10.03
2018-05-01T05:26:21.440Z,13.53
2018-05-01T05:28:48.909Z,9.40
2018-05-01T05:31:16.385Z,9.30
2018-05-01T05:33:43.842Z,11.52
2018-05-01T05:36:11.312Z,13.40
2018-05-01T05:38:38.785Z,14.40
2018-05-01T05:41:06.835Z,12.02
2018-05-01T05:43:34.265Z,11.73
2018-05-01T05:46:01.799Z,13.77
2018-05-01T05:48:30.284Z,13.60
2018-05-01T05:50:58.529Z,10.73
2018-05-01T05:53:25.954Z,9.60
2018-05-01T05:55:53.464Z,11.52
2018-05-01T05:58:21.124Z,13.85
2018-05-01T06:00:48.607Z,11.77
2018-05-01T06:03:16.910Z,11.82
2018-05-01T06:05:44.408Z,12.23
2018-05-01T06:08:11.979Z,16.47
2018-05-01T06:10:39.565Z,9.48
2018-05-01T06:13:07.016Z,10.40
2018-05-01T06:15:34.497Z,11.80
2018-05-01T06:18:02.211Z,14.38
2018-05-01T06:20:29.670Z,12.02
2018-05-01T06:22:57.938Z,12.10
2018-05-01T06:25:26.157Z,12.73
2018-05-01T06:27:53.612Z,12.80
2018-05-01T06:30:21.156Z,11.07
2018-05-01T06:32:49.440Z,10.43
2018-05-01T06:35:17.070Z,14.33
2018-05-01T06:37:44.534Z,10.83
2018-05-01T06:40:12.782Z,12.40
2018-05-01T06:42:40.290Z,9.40
2018-05-01T06:45:07.773Z,11.93
2018-05-01T06:47:35.270Z,8.55
2018-05-01T06:50:03.651Z,14.17
2018-05-01T06:52:31.091Z,17.27
2018-05-01T06:54:58.541Z,11.27
2018-05-01T06:57:26.040Z,16.95
2018-05-01T06:59:54.531Z,15.60
2018-05-01T07:02:22.031Z,12.20
2018-05-01T07:04:49.460Z,10.40
2018-05-01T07:07:16.932Z,11.20
2018-05-01T07:09:44.415Z,11.57
2018-05-01T07:12:11.958Z,18.37
2018-05-01T07:14:39.505Z,13.73
2018-05-01T07:17:06.991Z,14.45
2018-05-01T07:19:34.447Z,15.17
2018-05-01T07:22:02.058Z,11.17
2018-05-01T07:24:29.558Z,10.75
2018-05-01T07:26:57.020Z,16.20
2018-05-01T07:29:24.694Z,10.03
2018-05-01T07:31:52.164Z,10.03
2018-05-01T07:34:19.637Z,15.27
2018-05-01T07:36:47.902Z,11.33
2018-05-01T07:39:16.314Z,8.50
2018-05-01T07:41:44.617Z,11.82
2018-05-01T07:44:12.295Z,10.87
2018-05-01T07:46:40.684Z,12.17
2018-05-01T07:49:09.082Z,11.53
2018-05-01T07:51:36.514Z,9.40
2018-05-01T07:54:04.006Z,9.60
2018-05-01T07:56:32.265Z,8.17
2018-05-01T07:59:00.990Z,12.40
2018-05-01T08:01:28.460Z,7.40
2018-05-01T08:03:56.480Z,11.93
2018-05-01T08:06:24.715Z,7.15
2018-05-01T08:08:52.245Z,7.80
2018-05-01T08:11:19.793Z,11.47
2018-05-01T08:13:47.302Z,7.23
2018-05-01T08:16:14.828Z,10.17
2018-05-01T08:18:42.406Z,9.77
2018-05-01T08:21:09.920Z,13.70
2018-05-01T08:23:38.415Z,5.93
2018-05-01T08:26:05.934Z,8.67
2018-05-01T08:28:33.587Z,8.90
2018-05-01T08:31:01.123Z,7.60
2018-05-01T08:33:28.638Z,7.67
2018-05-01T08:35:56.944Z,9.73
2018-05-01T08:38:24.605Z,11.43
2018-05-01T08:40:53.891Z,8.93
2018-05-01T08:43:21.624Z,9.90
2018-05-01T08:45:49.936Z,11.70
2018-05-01T08:48:17.706Z,10.73
2018-05-01T08:50:45.407Z,8.17
2018-05-01T08:53:12.924Z,10.43
2018-05-01T08:55:40.678Z,6.57
2018-05-01T08:58:08.236Z,11.68
2018-05-01T09:00:35.704Z,7.17
2018-05-01T09:03:03.793Z,6.23
2018-05-01T09:05:31.580Z,4.80
2018-05-01T09:07:59.101Z,8.67
2018-05-01T09:10:26.668Z,8.47
2018-05-01T09:12:54.144Z,6.83
2018-05-01T09:15:21.927Z,11.33
2018-05-01T09:17:49.606Z,6.70
2018-05-01T09:20:17.928Z,9.40
2018-05-01T09:22:45.563Z,8.27
2018-05-01T09:25:14.100Z,7.87
2018-05-01T09:27:41.807Z,6.50
2018-05-01T09:30:09.345Z,7.37
2018-05-01T09:32:36.847Z,4.87
2018-05-01T09:35:04.372Z,9.27
2018-05-01T09:37:32.602Z,10.32
2018-05-01T09:40:00.066Z,5.78
2018-05-01T09:42:27.823Z,9.23
2018-05-01T09:44:55.439Z,6.82
2018-05-01T09:47:23.089Z,11.70
2018-05-01T09:49:50.583Z,7.17
2018-05-01T09:52:18.954Z,5.93
2018-05-01T09:54:47.257Z,7.80
2018-05-01T09:57:15.828Z,8.83
2018-05-01T09:59:44.451Z,6.90
2018-05-01T10:02:12.942Z,5.37
2018-05-01T10:04:42.073Z,12.32
2018-05-01T10:07:10.481Z,7.70
2018-05-01T10:09:38.851Z,7.83
2018-05-01T10:12:07.338Z,7.03
2018-05-01T10:14:36.828Z,8.83
2018-05-01T10:17:06.121Z,7.77
2018-05-01T10:19:34.445Z,7.30
2018-05-01T10:22:03.165Z,10.00
2018-05-01T10:24:31.728Z,6.83
2018-05-01T10:27:00.268Z,10.20
2018-05-01T10:29:28.719Z,8.60
2018-05-01T10:31:57.186Z,10.13
2018-05-01T10:34:26.340Z,9.23
2018-05-01T10:36:54.742Z,7.97
2018-05-01T10:39:23.322Z,7.87
2018-05-01T10:41:51.954Z,8.80
2018-05-01T10:44:20.578Z,7.07
2018-05-01T10:46:48.872Z,8.40
2018-05-01T10:49:17.244Z,5.03
2018-05-01T10:51:45.550Z,8.75
2018-05-01T10:54:14.945Z,6.30
2018-05-01T10:56:44.078Z,10.77
2018-05-01T10:59:12.439Z,6.37
2018-05-01T11:01:40.872Z,6.73
2018-05-01T11:04:09.346Z,10.43
2018-05-01T11:06:37.931Z,5.85
2018-05-01T11:09:07.183Z,10.10
2018-05-01T11:11:35.641Z,8.23
2018-05-01T11:14:04.999Z,8.33
2018-05-01T11:16:34.602Z,6.97
2018-05-01T11:19:02.914Z,7.97
2018-05-01T11:21:32.107Z,8.23
2018-05-01T11:24:01.332Z,6.67
2018-05-01T11:26:29.689Z,6.20
2018-05-01T11:28:58.964Z,5.20
2018-05-01T11:31:27.412Z,6.53
2018-05-01T11:33:55.851Z,4.40
2018-05-01T11:36:25.059Z,6.77
2018-05-01T11:38:54.619Z,10.40
2018-05-01T11:41:23.124Z,5.62
2018-05-01T11:43:51.595Z,6.87
2018-05-01T11:46:20.066Z,6.27
2018-05-01T11:48:48.495Z,6.93
2018-05-01T11:51:18.097Z,7.90
2018-05-01T11:53:47.246Z,7.83
2018-05-01T11:56:15.633Z,5.80
2018-05-01T11:58:43.968Z,9.43
2018-05-01T12:01:12.483Z,7.43
2018-05-01T12:03:40.806Z,7.53
2018-05-01T12:06:10.181Z,6.83
2018-05-01T12:08:38.542Z,9.80
2018-05-01T12:11:06.932Z,9.65
2018-05-01T12:13:35.334Z,12.82
2018-05-01T12:16:04.440Z,9.48
2018-05-01T12:18:33.663Z,6.73
2018-05-01T12:21:02.092Z,10.67
2018-05-01T12:23:30.514Z,6.17
2018-05-01T12:25:58.941Z,6.03
2018-05-01T12:28:27.436Z,9.88
2018-05-01T12:30:55.794Z,8.27
2018-05-01T12:33:24.186Z,7.47
2018-05-01T12:35:52.732Z,10.75
2018-05-01T12:38:21.187Z,4.80
2018-05-01T12:40:49.570Z,5.80
2018-05-01T12:43:17.925Z,6.97
2018-05-01T12:45:47.070Z,5.40
2018-05-01T12:48:15.736Z,6.17
2018-05-01T12:50:44.116Z,5.87
2018-05-01T12:53:12.725Z,7.23
2018-05-01T12:55:41.078Z,6.57
2018-05-01T12:58:09.588Z,6.57
2018-05-01T13:00:37.958Z,7.67
2018-05-01T13:03:06.388Z,7.33
2018-05-01T13:05:35.073Z,4.60
2018-05-01T13:08:03.432Z,12.17
2018-05-01T13:10:31.739Z,7.65
2018-05-01T13:13:00.220Z,6.57
2018-05-01T13:15:28.809Z,7.03
2018-05-01T13:17:57.311Z,6.47
2018-05-01T13:20:25.646Z,5.23
2018-05-01T13:22:55.883Z,6.13
2018-05-01T13:25:24.285Z,5.37
2018-05-01T13:27:52.615Z,3.93
2018-05-01T13:30:21.121Z,4.70
2018-05-01T13:32:49.586Z,8.10
2018-05-01T13:35:18.904Z,5.10
2018-05-01T13:37:47.301Z,3.47
2018-05-01T13:40:15.871Z,5.45
2018-05-01T13:42:44.305Z,4.30
2018-05-01T13:45:12.829Z,3.92
2018-05-01T13:47:41.239Z,5.35
2018-05-01T13:50:09.606Z,4.30
2018-05-01T13:52:38.097Z,2.57
2018-05-01T13:55:06.609Z,5.83
2018-05-01T13:57:35.008Z,3.43
2018-05-01T14:00:04.244Z,4.30
2018-05-01T14:02:32.650Z,5.87
2018-05-01T14:05:01.022Z,6.70
2018-05-01T14:07:29.358Z,5.37
2018-05-01T14:09:57.692Z,4.60
2018-05-01T14:12:26.118Z,4.37
2018-05-01T14:14:54.594Z,5.72
2018-05-01T14:17:23.006Z,3.57
2018-05-01T14:19:51.387Z,7.10
2018-05-01T14:22:20.012Z,3.37
2018-05-01T14:24:49.276Z,5.40
2018-05-01T14:27:17.704Z,8.70
2018-05-01T14:29:46.123Z,6.53
2018-05-01T14:32:14.579Z,3.80
2018-05-01T14:34:43.724Z,6.07
2018-05-01T14:37:12.067Z,6.55
2018-05-01T14:39:40.569Z,4.28
2018-05-01T14:42:09.263Z,7.78
2018-05-01T14:44:37.734Z,6.12
2018-05-01T14:47:06.393Z,8.52
2018-05-01T14:49:34.827Z,4.73
2018-05-01T14:52:03.266Z,5.73
2018-05-01T14:54:32.736Z,3.60
2018-05-01T14:57:01.235Z,3.55
2018-05-01T14:59:29.769Z,3.53
2018-05-01T15:01:58.141Z,5.70
2018-05-01T15:04:26.513Z,5.37
2018-05-01T15:06:54.928Z,4.68
2018-05-01T15:09:24.080Z,3.35
2018-05-01T15:11:52.496Z,3.80
2018-05-01T15:14:21.748Z,4.90
2018-05-01T15:16:50.069Z,5.43
2018-05-01T15:19:19.320Z,4.57
2018-05-01T15:21:47.788Z,3.97
2018-05-01T15:24:16.380Z,3.03
2018-05-01T15:26:45.875Z,6.10
2018-05-01T15:29:14.543Z,4.53
2018-05-01T15:31:43.682Z,6.17
2018-05-01T15:34:12.428Z,3.67
2018-05-01T15:36:41.044Z,3.23
2018-05-01T15:39:09.461Z,4.47
2018-05-01T15:41:37.770Z,4.47
2018-05-01T15:44:07.110Z,5.17
2018-05-01T15:46:35.579Z,4.97
2018-05-01T15:49:04.290Z,5.90
2018-05-01T15:51:32.633Z,5.57
2018-05-01T15:54:00.994Z,6.93
2018-05-01T15:56:29.494Z,3.67
2018-05-01T15:58:59.828Z,5.23
2018-05-01T16:01:28.229Z,5.50
2018-05-01T16:03:56.960Z,3.40
2018-05-01T16:06:25.361Z,5.93
2018-05-01T16:08:53.736Z,5.33
2018-05-01T16:11:22.332Z,5.00
2018-05-01T16:13:50.869Z,9.03
2018-05-01T16:16:20.665Z,3.00
2018-05-01T16:18:50.742Z,9.60
2018-05-01T16:21:19.193Z,5.23
2018-05-01T16:23:48.469Z,5.87
2018-05-01T16:26:17.126Z,5.40
2018-05-01T16:28:45.571Z,3.43
2018-05-01T16:31:14.138Z,4.97
2018-05-01T16:33:43.416Z,6.27
2018-05-01T16:36:11.922Z,5.70
2018-05-01T16:38:41.078Z,5.10
2018-05-01T16:41:09.789Z,3.90
2018-05-01T16:43:38.316Z,4.37
2018-05-01T16:46:06.892Z,4.30
2018-05-01T16:48:35.512Z,5.23
2018-05-01T16:51:04.051Z,5.53
2018-05-01T16:53:32.512Z,6.13
2018-05-01T16:56:01.936Z,4.03
2018-05-01T16:58:30.860Z,5.67
2018-05-01T17:00:59.710Z,5.13
2018-05-01T17:03:28.744Z,5.72
2018-05-01T17:05:57.327Z,4.70
2018-05-01T17:08:25.974Z,5.22
2018-05-01T17:10:54.576Z,7.40
2018-05-01T17:13:23.004Z,2.87
2018-05-01T17:15:51.703Z,3.30
2018-05-01T17:18:21.068Z,4.27
2018-05-01T17:20:49.865Z,2.37
2018-05-01T17:23:19.602Z,6.70
2018-05-01T17:25:48.452Z,3.87
2018-05-01T17:28:17.087Z,3.37
2018-05-01T17:30:45.730Z,5.13
2018-05-01T17:33:14.749Z,4.97
2018-05-01T17:35:44.741Z,3.03
2018-05-01T17:38:13.666Z,7.73
2018-05-01T17:40:42.938Z,5.00
2018-05-01T17:43:11.705Z,5.32
2018-05-01T17:45:40.198Z,4.80
2018-05-01T17:48:08.831Z,6.00
2018-05-01T17:50:38.465Z,6.57
2018-05-01T17:53:07.139Z,5.70
2018-05-01T17:55:35.881Z,5.50
2018-05-01T17:58:05.122Z,3.87
2018-05-01T18:00:34.177Z,4.73
2018-05-01T18:03:03.136Z,5.57
2018-05-01T18:05:32.434Z,3.42
2018-05-01T18:08:01.618Z,5.65
2018-05-01T18:10:30.415Z,4.87
2018-05-01T18:12:59.415Z,4.80
2018-05-01T18:15:28.092Z,3.87
2018-05-01T18:17:57.561Z,4.97
2018-05-01T18:20:27.202Z,2.63
2018-05-01T18:22:56.280Z,3.57
2018-05-01T18:25:25.322Z,3.13
2018-05-01T18:27:54.117Z,3.80
2018-05-01T18:30:23.205Z,4.70
2018-05-01T18:32:52.982Z,5.60
2018-05-01T18:35:22.252Z,2.93
2018-05-01T18:37:51.598Z,2.90
2018-05-01T18:40:20.249Z,5.05
2018-05-01T18:42:48.829Z,3.60
2018-05-01T18:45:17.343Z,2.97
2018-05-01T18:47:45.899Z,4.30
2018-05-01T18:50:14.488Z,3.60
2018-05-01T18:52:42.995Z,3.25
2018-05-01T18:55:11.629Z,3.97
2018-05-01T18:57:40.756Z,6.15
2018-05-01T19:00:09.232Z,3.93
2018-05-01T19:02:37.709Z,3.17
2018-05-01T19:05:06.144Z,10.47
2018-05-01T19:07:34.780Z,3.50
2018-05-01T19:10:03.133Z,2.80
2018-05-01T19:12:32.317Z,5.07
2018-05-01T19:15:01.494Z,5.03
2018-05-01T19:17:29.953Z,4.28
2018-05-01T19:19:58.433Z,16.00
2018-05-01T19:22:27.164Z,31.67
2018-05-01T19:24:56.400Z,32.37
2018-05-01T19:27:25.085Z,8.80
2018-05-01T19:29:53.671Z,4.67
2018-05-01T19:32:22.447Z,3.90
2018-05-01T19:34:51.434Z,5.63
2018-05-01T19:37:20.005Z,4.37
2018-05-01T19:39:49.308Z,5.10
2018-05-01T19:42:18.615Z,3.97
2018-05-01T19:44:47.214Z,3.27
2018-05-01T19:47:15.583Z,3.57
2018-05-01T19:49:43.991Z,4.00
2018-05-01T19:52:12.385Z,3.50
2018-05-01T19:54:40.859Z,3.97
2018-05-01T19:57:09.422Z,3.43
2018-05-01T19:59:37.948Z,2.70
2018-05-01T20:02:06.523Z,5.30
2018-05-01T20:04:35.015Z,6.20
2018-05-01T20:07:04.529Z,8.30
2018-05-01T20:09:34.823Z,36.83
2018-05-01T20:12:03.303Z,27.70
2018-05-01T20:14:31.711Z,8.97
2018-05-01T20:17:00.841Z,5.50
2018-05-01T20:19:29.191Z,15.47
2018-05-01T20:21:58.448Z,5.60
2018-05-01T20:24:26.997Z,5.53
2018-05-01T20:26:55.344Z,5.17
2018-05-01T20:29:23.740Z,4.90
2018-05-01T20:31:52.880Z,7.77
2018-05-01T20:34:21.285Z,5.53
2018-05-01T20:36:49.730Z,10.23
2018-05-01T20:39:18.100Z,7.03
2018-05-01T20:41:46.430Z,9.17
2018-05-01T20:44:15.801Z,16.80
2018-05-01T20:46:44.117Z,13.07
2018-05-01T20:49:13.509Z,14.87
2018-05-01T20:51:42.764Z,12.70
2018-05-01T20:54:11.175Z,11.97
2018-05-01T20:56:41.273Z,7.33
2018-05-01T20:59:09.607Z,8.45
2018-05-01T21:01:38.095Z,8.93
2018-05-01T21:04:06.701Z,11.23
2018-05-01T21:06:35.120Z,11.25
2018-05-01T21:09:04.348Z,10.10
2018-05-01T21:11:32.787Z,13.00
2018-05-01T21:14:02.456Z,6.12
2018-05-01T21:16:31.062Z,7.83
2018-05-01T21:18:59.493Z,6.23
2018-05-01T21:21:28.935Z,9.17
2018-05-01T21:23:57.333Z,6.30
2018-05-01T21:26:25.883Z,5.40
2018-05-01T21:28:54.239Z,6.30
2018-05-01T21:31:22.569Z,8.70
2018-05-01T21:33:50.866Z,7.37
2018-05-01T21:36:19.688Z,7.72
2018-05-01T21:38:47.985Z,5.77
2018-05-01T21:41:16.416Z,5.90
2018-05-01T21:43:44.754Z,7.50
2018-05-01T21:46:14.312Z,8.50
2018-05-01T21:48:43.478Z,6.17
2018-05-01T21:51:11.881Z,5.57
2018-05-01T21:53:40.365Z,6.17
2018-05-01T21:56:08.878Z,7.10
2018-05-01T21:58:37.189Z,5.43
2018-05-01T22:01:05.727Z,4.93
2018-05-01T22:03:34.102Z,7.87
2018-05-01T22:06:02.491Z,6.43
2018-05-01T22:08:30.823Z,3.70
2018-05-01T22:10:59.248Z,5.35
2018-05-01T22:13:27.557Z,7.67
2018-05-01T22:15:57.464Z,6.70
2018-05-01T22:18:25.931Z,5.20
2018-05-01T22:20:54.236Z,8.90
2018-05-01T22:23:22.631Z,4.47
2018-05-01T22:25:51.060Z,4.40
2018-05-01T22:28:19.440Z,5.53
2018-05-01T22:30:47.961Z,4.97
2018-05-01T22:33:16.464Z,5.17
2018-05-01T22:35:44.986Z,5.20
2018-05-01T22:38:13.309Z,5.17
2018-05-01T22:40:41.651Z,6.10
2018-05-01T22:43:09.974Z,8.60
2018-05-01T22:45:38.360Z,5.03
2018-05-01T22:48:06.694Z,4.60
2018-05-01T22:50:35.041Z,5.37
2018-05-01T22:53:03.385Z,5.93
2018-05-01T22:55:31.707Z,7.07
2018-05-01T22:58:00.021Z,6.93
2018-05-01T23:00:28.406Z,6.93
2018-05-01T23:02:56.751Z,4.23
2018-05-01T23:05:25.246Z,5.50
2018-05-01T23:07:53.688Z,4.50
2018-05-01T23:10:22.057Z,4.73
2018-05-01T23:12:51.116Z,5.37
2018-05-01T23:15:19.416Z,6.40
2018-05-01T23:17:48.665Z,5.07
2018-05-01T23:20:16.965Z,8.47
2018-05-01T23:22:45.274Z,4.90
2018-05-01T23:25:14.465Z,3.95
2018-05-01T23:27:44.457Z,7.17
2018-05-01T23:30:12.738Z,4.17
2018-05-01T23:32:42.136Z,4.80
2018-05-01T23:35:10.507Z,4.97
2018-05-01T23:37:38.931Z,8.60
2018-05-01T23:40:08.090Z,5.13
2018-05-01T23:42:36.421Z,4.10
2018-05-01T23:45:04.893Z,7.80
2018-05-01T23:47:34.233Z,4.20
2018-05-01T23:50:02.552Z,5.90
2018-05-01T23:52:31.669Z,5.53
2018-05-01T23:55:00.023Z,5.82
2018-05-01T23:57:29.301Z,8.77
2018-05-01T23:59:57.623Z,4.80
